Time;durP1;ratioP1;P1;durP2;ratioP2;P2;SDS_P1;SDS_P2;PMS_P1;PMS_P2;Temp;Humidity;BMP_temperature;BMP_pressure;BME280_temperature;BME280_humidity;BME280_pressure;Samples;Min_cycle;Max_cycle;Signal;HPM_P1;HPM_P2
2023/02/02 00:01:09;;;;;;;14.00;3.00;;;;;;;2.02;100.00;96684.16;6189602;23;20012;-88
2023/02/02 00:03:39;;;;;;;16.03;3.27;;;;;;;2.06;100.00;96689.97;6189846;23;20019;-89
2023/02/02 00:06:05;;;;;;;13.50;3.73;;;;;;;2.02;100.00;96691.94;6190573;23;20039;-89
2023/02/02 00:08:31;;;;;;;12.00;3.67;;;;;;;2.01;100.00;96698.06;6215374;23;20008;-89
2023/02/02 00:10:57;;;;;;;13.30;3.63;;;;;;;2.01;100.00;96698.06;6215485;23;20504;-88
2023/02/02 00:13:22;;;;;;;16.50;3.30;;;;;;;2.02;100.00;96697.13;6212415;23;20336;-88
2023/02/02 00:15:52;;;;;;;14.03;4.00;;;;;;;1.94;100.00;96693.31;6171326;23;20019;-89
2023/02/02 00:18:17;;;;;;;9.67;3.10;;;;;;;1.99;100.00;96686.09;6180328;23;20016;-89
2023/02/02 00:20:44;;;;;;;14.83;4.07;;;;;;;1.94;100.00;96695.91;6197330;23;20012;-88
2023/02/02 00:23:09;;;;;;;13.57;3.80;;;;;;;1.86;100.00;96683.44;6189824;23;20338;-88
2023/02/02 00:25:36;;;;;;;8.93;3.03;;;;;;;1.93;100.00;96692.50;6171630;23;21045;-88
2023/02/02 00:28:02;;;;;;;19.77;4.30;;;;;;;1.87;100.00;96690.28;6173312;23;20047;-88
2023/02/02 00:30:27;;;;;;;14.90;3.30;;;;;;;1.87;100.00;96690.28;6175968;23;20008;-88
2023/02/02 00:32:55;;;;;;;16.07;4.10;;;;;;;1.87;100.00;96696.28;6173871;23;20012;-89
2023/02/02 00:35:22;;;;;;;9.83;2.73;;;;;;;1.85;100.00;96703.34;6172824;23;20090;-88
2023/02/02 00:37:48;;;;;;;12.10;3.20;;;;;;;1.88;100.00;96697.97;6196533;23;20059;-87
2023/02/02 00:40:15;;;;;;;12.00;3.33;;;;;;;1.83;100.00;96697.41;6170698;23;20415;-87
2023/02/02 00:42:42;;;;;;;12.97;3.43;;;;;;;1.79;100.00;96684.75;6196007;23;20031;-88
2023/02/02 00:45:15;;;;;;;13.00;3.27;;;;;;;1.82;100.00;96682.78;6214206;23;20462;-89
2023/02/02 00:47:48;;;;;;;13.93;3.47;;;;;;;1.81;100.00;96688.06;6215970;23;20015;-89
2023/02/02 00:50:18;;;;;;;10.07;3.45;;;;;;;1.78;100.00;96690.88;6190770;23;20225;-89
2023/02/02 00:52:57;;;;;;;14.00;3.63;;;;;;;1.74;100.00;96686.75;6242129;23;20012;-88
2023/02/02 00:55:25;;;;;;;11.60;3.50;;;;;;;1.73;100.00;96682.53;6190579;23;20020;-89
2023/02/02 00:57:51;;;;;;;16.33;3.87;;;;;;;1.76;100.00;96677.16;6215578;23;20678;-89
2023/02/02 01:00:27;;;;;;;13.10;3.13;;;;;;;1.75;100.00;96660.75;6190918;23;20091;-89
2023/02/02 01:02:54;;;;;;;16.13;3.67;;;;;;;1.70;100.00;96680.94;6190334;23;20008;-89
2023/02/02 01:05:21;;;;;;;10.93;3.20;;;;;;;1.73;100.00;96700.66;6190947;23;20020;-89
2023/02/02 01:07:54;;;;;;;11.00;3.70;;;;;;;1.78;100.00;96693.47;6190489;23;20043;-89
2023/02/02 01:10:19;;;;;;;16.02;3.85;;;;;;;1.75;100.00;96688.44;6242325;23;20008;-89
2023/02/02 01:12:45;;;;;;;9.77;3.23;;;;;;;1.76;100.00;96684.94;6215224;23;20000;-89
2023/02/02 01:15:12;;;;;;;15.40;3.30;;;;;;;1.73;100.00;96693.72;6215738;23;20012;-89
2023/02/02 01:17:39;;;;;;;15.00;3.60;;;;;;;1.71;100.00;96689.53;6190351;23;20012;-89
2023/02/02 01:20:06;;;;;;;13.87;4.10;;;;;;;1.69;100.00;96686.22;6190258;23;20012;-89
2023/02/02 01:22:37;;;;;;;13.20;3.03;;;;;;;1.70;100.00;96687.88;6190098;23;20211;-89
2023/02/02 01:25:04;;;;;;;13.47;4.40;;;;;;;1.77;100.00;96690.00;6191231;23;20016;-89
2023/02/02 01:27:30;;;;;;;10.57;3.33;;;;;;;1.77;100.00;96682.22;6190539;23;20091;-89
2023/02/02 01:29:57;;;;;;;14.47;3.73;;;;;;;1.81;100.00;96691.50;6191980;23;20000;-89
2023/02/02 01:32:23;;;;;;;16.00;3.63;;;;;;;1.84;100.00;96683.50;6224304;23;20046;-89
2023/02/02 01:34:49;;;;;;;12.80;3.13;;;;;;;1.80;100.00;96689.00;6202595;23;20016;-88
2023/02/02 01:37:14;;;;;;;12.97;3.10;;;;;;;1.84;100.00;96682.69;6226389;23;20019;-89
2023/02/02 01:39:40;;;;;;;12.33;2.90;;;;;;;1.82;100.00;96687.97;6204925;23;20126;-89
2023/02/02 01:42:13;;;;;;;10.97;3.00;;;;;;;1.84;100.00;96686.09;6240596;23;20027;-88
2023/02/02 01:45:16;;;;;;;8.23;2.70;;;;;;;1.82;100.00;96697.53;6183773;23;20026;-89
2023/02/02 01:47:51;;;;;;;12.23;3.40;;;;;;;1.84;100.00;96685.28;6183825;23;20011;-89
2023/02/02 01:50:20;;;;;;;13.63;3.23;;;;;;;1.79;100.00;96682.97;6207113;23;20884;-89
2023/02/02 01:52:48;;;;;;;12.63;3.20;;;;;;;1.81;100.00;96698.44;6208510;23;20054;-89
2023/02/02 01:55:17;;;;;;;11.93;3.33;;;;;;;1.75;100.00;96704.00;6185146;23;20031;-87
2023/02/02 01:58:01;;;;;;;16.73;3.83;;;;;;;1.76;100.00;96700.47;6185250;23;20019;-89
2023/02/02 02:00:27;;;;;;;7.53;2.73;;;;;;;1.70;100.00;96696.50;6190641;23;20011;-89
2023/02/02 02:02:59;;;;;;;11.47;2.80;;;;;;;1.72;100.00;96705.03;6211868;23;20092;-89
2023/02/02 02:05:34;;;;;;;15.10;3.57;;;;;;;1.69;100.00;96704.38;6201356;23;20107;-89
2023/02/02 02:08:07;;;;;;;12.03;2.63;;;;;;;1.61;100.00;96705.69;6183355;23;20147;-89
2023/02/02 02:10:33;;;;;;;9.05;3.03;;;;;;;1.58;100.00;96707.63;6182751;23;20016;-89
2023/02/02 02:13:05;;;;;;;10.97;3.13;;;;;;;1.56;100.00;96712.88;6187964;23;20012;-90
2023/02/02 02:18:49;;;;;;;12.63;3.20;;;;;;;1.56;100.00;96712.06;6214416;23;20016;-90
2023/02/02 02:27:48;;;;;;;13.80;3.17;;;;;;;1.51;100.00;96714.94;6214349;23;20041;-90
2023/02/02 02:30:30;;;;;;;13.67;4.00;;;;;;;1.52;100.00;96705.41;6188257;23;20015;-89
2023/02/02 02:33:03;;;;;;;13.67;3.73;;;;;;;1.52;100.00;96710.59;6215517;23;20008;-89
2023/02/02 02:35:35;;;;;;;11.30;2.67;;;;;;;1.49;100.00;96709.00;6190127;23;20020;-89
2023/02/02 02:38:10;;;;;;;17.60;2.97;;;;;;;1.49;100.00;96709.00;6189924;23;20024;-88
2023/02/02 02:40:53;;;;;;;16.10;3.73;;;;;;;1.48;100.00;96704.75;6189249;23;20772;-89
2023/02/02 02:43:36;;;;;;;9.77;3.23;;;;;;;1.48;100.00;96709.94;6189468;23;20019;-89
2023/02/02 02:46:03;;;;;;;12.95;2.72;;;;;;;1.47;100.00;96705.66;6188500;23;20020;-89
2023/02/02 02:48:30;;;;;;;12.27;2.40;;;;;;;1.47;100.00;96702.22;6189999;23;20012;-89
2023/02/02 02:51:28;;;;;;;8.00;2.60;;;;;;;1.49;100.00;96708.16;6188634;23;20040;-89
2023/02/02 02:53:55;;;;;;;8.77;3.10;;;;;;;1.47;100.00;96705.66;6189296;23;20810;-89
2023/02/02 02:56:32;;;;;;;14.20;2.87;;;;;;;1.52;100.00;96689.84;6189325;23;20095;-89
2023/02/02 02:59:05;;;;;;;9.23;3.37;;;;;;;1.53;100.00;96692.34;6189632;23;20069;-89
2023/02/02 03:01:58;;;;;;;9.27;2.72;;;;;;;1.58;100.00;96697.25;6215922;23;20008;-89
2023/02/02 03:04:46;;;;;;;12.27;3.20;;;;;;;1.55;100.00;96703.44;6239563;23;20019;-89
2023/02/02 03:07:22;;;;;;;10.50;2.60;;;;;;;1.61;100.00;96702.22;6217801;23;20012;-89
2023/02/02 03:09:50;;;;;;;7.90;2.70;;;;;;;1.65;100.00;96698.56;6194491;23;20375;-89
2023/02/02 03:12:16;;;;;;;9.53;2.83;;;;;;;1.69;100.00;96706.97;6244769;23;20027;-89
2023/02/02 03:14:42;;;;;;;9.60;4.00;;;;;;;1.73;100.00;96703.25;6193254;23;20069;-89
2023/02/02 03:17:18;;;;;;;12.63;3.50;;;;;;;1.72;100.00;96704.19;6193943;23;20008;-89
2023/02/02 03:19:44;;;;;;;9.23;2.83;;;;;;;1.76;100.00;96693.53;6194429;23;20016;-89
2023/02/02 03:22:16;;;;;;;11.33;3.10;;;;;;;1.75;100.00;96691.03;6218025;23;20008;-89
2023/02/02 03:24:42;;;;;;;11.70;2.55;;;;;;;1.79;100.00;96693.34;6194215;23;20351;-90
2023/02/02 03:27:08;;;;;;;8.63;2.83;;;;;;;1.79;100.00;96692.53;6219044;23;20012;-89
2023/02/02 03:29:33;;;;;;;10.60;2.57;;;;;;;1.81;100.00;96691.50;6218636;23;20035;-90
2023/02/02 03:31:59;;;;;;;9.60;2.90;;;;;;;1.85;100.00;96689.56;6194346;23;20008;-89
2023/02/02 03:34:25;;;;;;;7.97;2.40;;;;;;;1.87;100.00;96705.84;6218334;23;20008;-89
2023/02/02 03:36:50;;;;;;;9.43;2.80;;;;;;;1.84;100.00;96711.22;6193236;23;20043;-90
2023/02/02 03:39:16;;;;;;;9.93;3.67;;;;;;;1.94;100.00;96704.53;6218977;23;20019;-89
2023/02/02 03:41:42;;;;;;;9.80;2.97;;;;;;;1.93;100.00;96715.00;6193585;23;20019;-89
2023/02/02 03:44:07;;;;;;;11.33;2.50;;;;;;;1.88;100.00;96695.38;6222444;23;20008;-89
2023/02/02 03:46:34;;;;;;;15.50;3.40;;;;;;;1.85;100.00;96707.72;6234222;23;19992;-89
2023/02/02 03:48:59;;;;;;;13.73;3.10;;;;;;;1.89;100.00;96701.41;6193444;23;20032;-90
2023/02/02 03:51:25;;;;;;;11.30;3.60;;;;;;;1.85;100.00;96712.91;6191596;23;20015;-89
2023/02/02 03:53:51;;;;;;;9.40;2.93;;;;;;;1.87;100.00;96721.41;6193219;23;20035;-89
2023/02/02 03:56:18;;;;;;;11.97;2.80;;;;;;;1.84;100.00;96713.81;6193649;23;20016;-90
2023/02/02 03:58:45;;;;;;;10.70;2.67;;;;;;;1.81;100.00;96727.81;6193804;23;20091;-90
2023/02/02 04:01:13;;;;;;;8.70;2.50;;;;;;;1.87;100.00;96726.59;6217355;23;20016;-89
2023/02/02 04:03:39;;;;;;;9.93;3.00;;;;;;;1.88;100.00;96728.28;6217046;23;20023;-89
2023/02/02 04:06:05;;;;;;;12.60;2.87;;;;;;;1.88;100.00;96720.50;6190827;23;20776;-89
2023/02/02 04:08:35;;;;;;;8.10;2.93;;;;;;;1.89;100.00;96720.38;6191546;23;20102;-90
2023/02/02 04:11:00;;;;;;;7.67;2.73;;;;;;;1.87;100.00;96721.41;6190167;23;20047;-90
2023/02/02 04:13:30;;;;;;;10.47;2.90;;;;;;;1.91;100.00;96717.69;6215160;23;20053;-89
2023/02/02 04:16:00;;;;;;;13.20;3.87;;;;;;;1.95;100.00;96719.19;6215656;23;20024;-88
2023/02/02 04:18:25;;;;;;;11.80;3.50;;;;;;;1.93;100.00;96722.78;6190877;23;20574;-89
2023/02/02 04:20:59;;;;;;;9.67;2.77;;;;;;;1.95;100.00;96726.13;6190151;23;20049;-89
2023/02/02 04:23:25;;;;;;;10.45;3.10;;;;;;;1.95;100.00;96720.94;6215334;23;20063;-89
2023/02/02 04:25:51;;;;;;;13.40;4.50;;;;;;;2.00;100.00;96722.31;6189791;23;20324;-89
2023/02/02 04:28:16;;;;;;;11.30;4.23;;;;;;;1.97;100.00;96727.69;6190420;23;20011;-87
2023/02/02 04:30:45;;;;;;;10.87;3.13;;;;;;;1.99;100.00;96732.78;6215571;23;20048;-90
2023/02/02 04:33:11;;;;;;;11.00;3.00;;;;;;;2.03;100.00;96737.69;6190260;23;20008;-89
2023/02/02 04:35:37;;;;;;;9.70;2.70;;;;;;;2.02;100.00;96736.03;6214581;23;20020;-89
2023/02/02 04:38:03;;;;;;;12.77;3.90;;;;;;;2.02;100.00;96746.41;6191113;23;20107;-89
2023/02/02 04:40:29;;;;;;;12.53;4.50;;;;;;;2.03;100.00;96753.25;6215571;23;20047;-90
2023/02/02 04:42:56;;;;;;;14.33;4.80;;;;;;;2.06;100.00;96750.47;6191220;23;20066;-89
2023/02/02 04:45:23;;;;;;;9.07;3.37;;;;;;;2.06;100.00;96753.06;6191136;23;20522;-90
2023/02/02 04:47:49;;;;;;;15.17;4.20;;;;;;;2.09;100.00;96757.25;6191585;23;20007;-90
2023/02/02 04:50:15;;;;;;;9.77;4.37;;;;;;;2.10;100.00;96757.13;6189776;23;20026;-89
2023/02/02 04:52:45;;;;;;;6.90;2.83;;;;;;;2.15;100.00;96745.63;6190850;23;20020;-89
2023/02/02 04:55:10;;;;;;;7.07;3.07;;;;;;;2.14;100.00;96755.19;6216274;23;20075;-89
2023/02/02 04:57:36;;;;;;;9.27;3.87;;;;;;;2.13;100.00;96764.72;6191230;23;20616;-89
2023/02/02 05:00:02;;;;;;;13.33;3.63;;;;;;;2.11;100.00;96769.19;6216195;23;20023;-90
2023/02/02 05:02:28;;;;;;;11.23;3.37;;;;;;;2.20;100.00;96759.16;6215905;23;20012;-88
2023/02/02 05:05:12;;;;;;;12.43;3.90;;;;;;;2.19;100.00;96763.53;6216731;23;20019;-89
2023/02/02 05:07:39;;;;;;;12.50;5.13;;;;;;;2.20;100.00;96770.38;6191801;23;20016;-90
2023/02/02 05:10:18;;;;;;;10.73;3.97;;;;;;;2.16;100.00;96771.50;6191587;23;20023;-89
2023/02/02 05:12:44;;;;;;;10.67;3.97;;;;;;;2.19;100.00;96770.50;6191359;23;20103;-90
2023/02/02 05:15:14;;;;;;;11.83;3.53;;;;;;;2.22;100.00;96773.72;6217096;23;20456;-90
2023/02/02 05:17:39;;;;;;;14.67;3.77;;;;;;;2.19;100.00;96763.53;6193426;23;20095;-90
2023/02/02 05:20:05;;;;;;;10.77;3.67;;;;;;;2.27;100.00;96768.25;6218172;23;20043;-89
2023/02/02 05:22:31;;;;;;;14.53;4.37;;;;;;;2.26;100.00;96769.19;6193665;23;20012;-90
2023/02/02 05:24:57;;;;;;;11.47;4.23;;;;;;;2.33;100.00;96770.47;6223489;23;20044;-89
2023/02/02 05:27:22;;;;;;;14.77;4.73;;;;;;;2.43;100.00;96770.72;6210180;22;20011;-89
2023/02/02 05:29:48;;;;;;;14.47;4.83;;;;;;;2.45;100.00;96761.91;6198783;23;20444;-89
2023/02/02 05:32:15;;;;;;;15.43;4.50;;;;;;;2.47;100.00;96778.22;6218426;23;20086;-89
2023/02/02 05:34:41;;;;;;;13.17;4.33;;;;;;;2.48;100.00;96755.69;6192468;23;20027;-89
2023/02/02 05:37:06;;;;;;;18.23;4.90;;;;;;;2.63;100.00;96769.47;6216252;23;20012;-89
2023/02/02 05:39:32;;;;;;;18.93;5.33;;;;;;;2.68;100.00;96783.81;6191046;23;20012;-89
2023/02/02 05:41:58;;;;;;;20.43;6.00;;;;;;;2.73;100.00;96781.75;6216988;23;20511;-89
2023/02/02 05:44:23;;;;;;;16.53;5.70;;;;;;;2.77;100.00;96787.59;6191531;23;20102;-89
2023/02/02 05:46:49;;;;;;;12.27;6.00;;;;;;;2.78;100.00;96792.72;6191104;23;20019;-89
2023/02/02 05:49:16;;;;;;;18.03;5.00;;;;;;;2.79;100.00;96794.38;6190951;23;20040;-89
2023/02/02 05:51:53;;;;;;;16.90;5.30;;;;;;;2.81;100.00;96802.03;6190041;23;20015;-89
2023/02/02 05:54:19;;;;;;;18.47;6.17;;;;;;;2.87;100.00;96798.25;6192390;23;20020;-89
2023/02/02 05:56:50;;;;;;;20.70;6.63;;;;;;;2.96;100.00;96801.09;6191995;23;20035;-90
2023/02/02 05:59:16;;;;;;;15.30;4.63;;;;;;;2.96;100.00;96795.88;6193034;23;20015;-89
2023/02/02 06:01:43;;;;;;;17.47;4.73;;;;;;;2.97;100.00;96797.53;6243590;23;20023;-89
2023/02/02 06:04:09;;;;;;;18.03;4.27;;;;;;;2.97;100.00;96794.13;6191194;23;20493;-90
2023/02/02 06:06:36;;;;;;;12.93;4.23;;;;;;;2.94;100.00;96799.50;6191780;23;20016;-90
2023/02/02 06:09:03;;;;;;;16.73;4.60;;;;;;;2.93;100.00;96801.28;6192351;23;20012;-90
2023/02/02 06:11:29;;;;;;;15.17;5.07;;;;;;;2.93;100.00;96801.28;6217157;23;20388;-89
2023/02/02 06:13:56;;;;;;;14.53;4.90;;;;;;;2.96;100.00;96801.09;6190381;23;20827;-90
2023/02/02 06:16:22;;;;;;;11.73;4.53;;;;;;;2.99;100.00;96802.66;6190608;23;20020;-89
2023/02/02 06:18:48;;;;;;;17.73;4.90;;;;;;;2.96;100.00;96810.66;6215961;23;20016;-88
2023/02/02 06:21:13;;;;;;;16.43;3.60;;;;;;;2.96;100.00;96801.09;6215931;23;20019;-90
2023/02/02 06:23:44;;;;;;;18.10;4.67;;;;;;;3.00;100.00;96802.53;6193317;23;20012;-89
2023/02/02 06:26:19;;;;;;;69.83;36.00;;;;;;;3.08;100.00;96802.03;6218011;23;20418;-92
2023/02/02 06:28:51;;;;;;;16.10;7.40;;;;;;;3.08;100.00;96809.84;6193553;23;20236;-91
2023/02/02 06:31:22;;;;;;;11.47;3.30;;;;;;;3.02;100.00;96807.66;6192531;23;20012;-91
2023/02/02 06:33:53;;;;;;;17.63;4.80;;;;;;;3.01;100.00;96811.16;6193666;23;20509;-90
2023/02/02 06:36:26;;;;;;;13.80;4.07;;;;;;;2.95;100.00;96820.22;6193273;23;20035;-90
2023/02/02 06:38:54;;;;;;;17.40;7.85;;;;;;;2.99;100.00;96820.84;6188749;23;20020;-91
2023/02/02 06:41:23;;;;;;;11.50;4.37;;;;;;;2.92;100.00;96820.41;6241925;23;20019;-91
2023/02/02 06:43:51;;;;;;;15.33;4.50;;;;;;;2.92;100.00;96817.81;6192284;23;20000;-90
2023/02/02 06:46:18;;;;;;;24.17;8.33;;;;;;;2.93;100.00;96821.22;6214510;23;20013;-91
2023/02/02 06:48:44;;;;;;;17.37;4.70;;;;;;;2.99;100.00;96811.28;6215888;23;20007;-91
2023/02/02 06:51:13;;;;;;;15.57;5.17;;;;;;;2.96;100.00;96827.06;6214572;23;20048;-91
2023/02/02 06:53:42;;;;;;;12.77;5.07;;;;;;;3.00;100.00;96814.72;6215394;23;20008;-91
2023/02/02 06:56:11;;;;;;;9.17;3.57;;;;;;;2.99;100.00;96839.03;6194323;23;20043;-91
2023/02/02 06:58:37;;;;;;;12.57;4.13;;;;;;;2.86;100.00;96820.78;6219507;23;20020;-91
2023/02/02 07:01:06;;;;;;;9.00;3.33;;;;;;;2.74;100.00;96819.78;6217040;23;20012;-91
2023/02/02 07:03:51;;;;;;;8.47;3.30;;;;;;;2.68;100.00;96819.34;6189269;23;20008;-91
2023/02/02 07:06:24;;;;;;;10.23;2.97;;;;;;;2.55;100.00;96822.72;6222045;23;20650;-90
2023/02/02 07:08:50;;;;;;;11.98;4.15;;;;;;;2.50;100.00;96827.34;6248607;22;20509;-90
2023/02/02 07:11:16;;;;;;;16.63;6.50;;;;;;;2.48;100.00;96830.97;6203920;23;20019;-91
2023/02/02 07:13:44;;;;;;;9.57;3.10;;;;;;;2.44;100.00;96826.88;6190086;23;20007;-90
2023/02/02 07:16:12;;;;;;;12.33;5.13;;;;;;;2.45;100.00;96826.81;6190250;23;20535;-91
2023/02/02 07:18:43;;;;;;;9.20;3.73;;;;;;;2.37;100.00;96821.25;6215880;23;20008;-91
2023/02/02 07:21:16;;;;;;;13.00;3.47;;;;;;;2.38;100.00;96828.09;6215260;23;20408;-91
2023/02/02 07:23:42;;;;;;;9.77;3.30;;;;;;;2.32;100.00;96828.50;6190743;23;20094;-91
2023/02/02 07:26:09;;;;;;;8.30;3.07;;;;;;;2.34;100.00;96822.25;6190936;23;20039;-91
2023/02/02 07:28:39;;;;;;;13.63;3.53;;;;;;;2.28;100.00;96834.78;6192369;23;20012;-91
2023/02/02 07:31:18;;;;;;;10.57;3.50;;;;;;;2.33;100.00;96835.34;6189821;23;20036;-90
2023/02/02 07:34:09;;;;;;;9.80;3.37;;;;;;;2.28;100.00;96827.00;6189058;23;20008;-91
2023/02/02 07:36:37;;;;;;;11.40;3.63;;;;;;;2.24;100.00;96834.13;6190632;23;20020;-90
2023/02/02 07:39:04;;;;;;;17.60;6.40;;;;;;;2.21;100.00;96833.47;6190561;23;20000;-91
2023/02/02 07:41:31;;;;;;;13.63;3.80;;;;;;;2.24;100.00;96835.91;6191149;23;20015;-89
2023/02/02 07:43:58;;;;;;;11.27;3.60;;;;;;;2.30;100.00;96844.13;6215307;23;20077;-90
2023/02/02 07:46:24;;;;;;;10.07;3.27;;;;;;;2.31;100.00;96842.38;6190364;23;20403;-91
2023/02/02 07:48:54;;;;;;;11.90;3.63;;;;;;;2.33;100.00;96843.97;6192784;23;20402;-91
2023/02/02 07:51:20;;;;;;;11.10;3.20;;;;;;;2.29;100.00;96841.66;6192800;23;20019;-91
2023/02/02 07:53:49;;;;;;;12.97;3.73;;;;;;;2.35;100.00;96836.09;6191286;23;20115;-91
2023/02/02 07:56:26;;;;;;;9.77;3.43;;;;;;;2.33;100.00;96843.13;6216495;23;20027;-91
2023/02/02 07:58:53;;;;;;;11.57;3.83;;;;;;;2.31;100.00;96835.44;6244392;23;20086;-90
2023/02/02 08:01:21;;;;;;;53.17;30.07;;;;;;;2.35;100.00;96844.72;6192601;23;20002;-91
2023/02/02 08:03:55;;;;;;;12.07;3.93;;;;;;;2.40;100.00;96841.81;6192544;23;20070;-90
2023/02/02 08:06:28;;;;;;;9.63;3.40;;;;;;;2.35;100.00;96836.94;6188332;23;20707;-91
2023/02/02 08:08:58;;;;;;;11.32;4.43;;;;;;;2.34;100.00;96837.84;6216148;23;20364;-91
2023/02/02 08:11:49;;;;;;;12.43;5.00;;;;;;;2.34;100.00;96847.38;6216292;23;20016;-90
2023/02/02 08:14:15;;;;;;;8.47;4.13;;;;;;;2.30;100.00;96848.50;6190343;23;20084;-90
2023/02/02 08:16:41;;;;;;;16.10;4.30;;;;;;;2.38;100.00;96843.66;6193697;23;20055;-91
2023/02/02 08:19:08;;;;;;;13.30;4.97;;;;;;;2.36;100.00;96853.31;6192765;23;20486;-91
2023/02/02 08:21:42;;;;;;;10.80;4.57;;;;;;;2.35;100.00;96857.69;6190656;23;20040;-89
2023/02/02 08:24:09;;;;;;;13.70;5.67;;;;;;;2.37;100.00;96857.59;6203996;23;20318;-89
2023/02/02 08:26:35;;;;;;;12.20;4.23;;;;;;;2.43;100.00;96859.81;6225060;23;20106;-90
2023/02/02 08:29:07;;;;;;;17.57;4.30;;;;;;;2.41;100.00;96871.22;6243516;23;20020;-90
2023/02/02 08:31:40;;;;;;;17.23;6.23;;;;;;;2.42;100.00;96870.28;6188914;23;20353;-90
2023/02/02 08:34:11;;;;;;;17.52;5.15;;;;;;;2.45;100.00;96872.69;6217851;23;20008;-91
2023/02/02 08:36:43;;;;;;;16.67;6.40;;;;;;;2.50;100.00;96875.84;6191419;23;20444;-90
2023/02/02 08:39:13;;;;;;;12.15;5.25;;;;;;;2.54;100.00;96885.94;6217505;23;20039;-90
2023/02/02 08:41:41;;;;;;;12.17;4.57;;;;;;;2.57;100.00;96890.13;6191043;23;20352;-90
2023/02/02 08:44:15;;;;;;;22.33;5.00;;;;;;;2.59;100.00;96899.50;6190611;23;20043;-90
2023/02/02 08:46:41;;;;;;;20.03;6.80;;;;;;;2.59;100.00;96893.47;6216891;23;20077;-91
2023/02/02 08:49:11;;;;;;;9.47;4.07;;;;;;;2.65;100.00;96879.25;6193236;23;20012;-90
2023/02/02 08:51:40;;;;;;;14.53;4.10;;;;;;;2.71;100.00;96881.47;6195565;23;20019;-90
2023/02/02 08:54:06;;;;;;;11.03;3.60;;;;;;;2.76;100.00;96892.44;6207415;22;20026;-90
2023/02/02 08:56:32;;;;;;;9.60;4.23;;;;;;;2.81;100.00;96874.78;6197631;23;20012;-91
2023/02/02 08:58:58;;;;;;;9.37;4.90;;;;;;;2.81;100.00;96886.00;6191042;23;20035;-91
2023/02/02 09:01:28;;;;;;;18.83;4.50;;;;;;;2.90;100.00;96873.38;6190707;23;20715;-90
2023/02/02 09:03:58;;;;;;;19.23;4.60;;;;;;;2.88;100.00;96877.81;6191286;23;20087;-90
2023/02/02 09:06:31;;;;;;;11.70;3.80;;;;;;;2.98;100.00;96871.94;6243071;23;20015;-91
2023/02/02 09:08:57;;;;;;;9.70;4.28;;;;;;;3.07;100.00;96886.13;6190551;23;20019;-90
2023/02/02 09:11:22;;;;;;;8.93;3.90;;;;;;;3.18;100.00;96875.06;6190429;23;20012;-90
2023/02/02 09:13:52;;;;;;;14.57;4.70;;;;;;;3.25;100.00;96879.78;6191546;23;20005;-91
2023/02/02 09:16:33;;;;;;;15.23;4.53;;;;;;;3.27;100.00;96888.31;6190274;23;20015;-91
2023/02/02 09:18:59;;;;;;;18.10;6.70;;;;;;;3.31;100.00;96868.97;6190891;23;20012;-90
2023/02/02 09:21:25;;;;;;;15.63;4.00;;;;;;;3.33;100.00;96886.25;6191247;23;20016;-90
2023/02/02 09:23:54;;;;;;;10.60;3.60;;;;;;;3.36;100.00;96870.47;6191687;23;20016;-89
2023/02/02 09:26:29;;;;;;;15.40;5.73;;;;;;;3.32;100.00;96875.03;6216919;23;20012;-89
2023/02/02 09:29:03;;;;;;;16.73;4.67;;;;;;;3.38;100.00;96884.19;6191476;23;20424;-89
2023/02/02 09:31:36;;;;;;;9.10;4.13;;;;;;;3.38;100.00;96881.56;6192243;23;20025;-89
2023/02/02 09:34:06;;;;;;;13.68;4.63;;;;;;;3.38;100.00;96890.19;6191205;23;20020;-89
2023/02/02 09:36:32;;;;;;;15.90;4.90;;;;;;;3.37;100.00;96883.34;6190718;23;20573;-89
2023/02/02 09:39:07;;;;;;;12.43;4.33;;;;;;;3.38;100.00;96898.00;6189037;23;20141;-89
2023/02/02 09:41:39;;;;;;;15.17;4.50;;;;;;;3.36;100.00;96899.88;6190605;23;20012;-89
2023/02/02 09:44:44;;;;;;;15.43;4.60;;;;;;;3.33;100.00;96905.28;6190944;23;20012;-89
2023/02/02 09:47:42;;;;;;;26.00;11.90;;;;;;;3.45;100.00;96906.25;6190857;23;20020;-87
2023/02/02 09:50:36;;;;;;;9.17;4.07;;;;;;;3.42;100.00;96902.09;6189701;23;20023;-89
2023/02/02 09:53:24;;;;;;;21.27;8.27;;;;;;;3.45;100.00;96901.88;6190725;23;20012;-88
2023/02/02 09:55:55;;;;;;;14.47;4.70;;;;;;;3.48;100.00;96906.88;6190335;23;20043;-88
2023/02/02 09:58:32;;;;;;;16.63;4.77;;;;;;;3.53;100.00;96901.41;6192150;23;20011;-88
2023/02/02 10:01:12;;;;;;;21.17;6.67;;;;;;;3.47;100.00;96902.63;6190496;23;20558;-89
2023/02/02 10:04:06;;;;;;;14.70;4.77;;;;;;;3.52;100.00;96890.16;6215546;23;20020;-89
2023/02/02 10:06:35;;;;;;;;;;;;;;;3.50;100.00;96910.22;6192761;23;20016;-89
2023/02/02 10:09:33;;;;;;;16.87;5.43;;;;;;;3.51;100.00;96916.25;6190130;23;19918;-89
2023/02/02 10:12:28;;;;;;;23.23;6.20;;;;;;;3.50;100.00;96923.22;6190323;23;20541;-89
2023/02/02 10:15:22;;;;;;;19.83;6.20;;;;;;;3.54;100.00;96922.09;6190307;23;20027;-88
2023/02/02 10:18:46;;;;;;;17.43;5.07;;;;;;;3.52;100.00;96912.72;6218111;23;20436;-89
2023/02/02 10:21:44;;;;;;;17.87;5.30;;;;;;;3.59;100.00;96910.56;6192570;23;20008;-88
2023/02/02 10:24:25;;;;;;;24.73;7.37;;;;;;;3.51;100.00;96898.88;6193886;23;20085;-89
2023/02/02 10:26:57;;;;;;;20.63;7.67;;;;;;;3.56;100.00;96913.38;6193983;23;20020;-88
2023/02/02 10:29:23;;;;;;;11.02;5.80;;;;;;;3.56;100.00;96908.19;6194038;23;20016;-88
2023/02/02 10:32:42;;;;;;;19.30;5.33;;;;;;;3.53;100.00;96910.03;6192852;23;20356;-85
2023/02/02 10:35:40;;;;;;;21.60;5.53;;;;;;;3.59;100.00;96905.34;6195347;23;20106;-88
2023/02/02 10:38:17;;;;;;;15.53;5.90;;;;;;;3.58;100.00;96906.28;6208928;23;20016;-88
2023/02/02 10:40:55;;;;;;;22.60;7.33;;;;;;;3.60;100.00;96917.44;6190519;23;20352;-89
2023/02/02 10:43:49;;;;;;;18.63;6.00;;;;;;;3.66;100.00;96919.66;6190183;23;20058;-89
2023/02/02 10:46:24;;;;;;;14.38;4.78;;;;;;;3.65;100.00;96925.75;6216782;23;20083;-87
2023/02/02 10:49:20;;;;;;;12.87;4.60;;;;;;;3.71;100.00;96927.97;6191170;23;20452;-88
2023/02/02 10:52:13;;;;;;;16.77;5.00;;;;;;;3.71;100.00;96935.78;6190162;23;20024;-87
2023/02/02 10:55:01;;;;;;;12.37;4.37;;;;;;;3.72;100.00;96934.84;6191164;23;20469;-88
2023/02/02 10:58:05;;;;;;;9.27;4.30;;;;;;;3.74;100.00;96933.81;6216304;23;20008;-87
2023/02/02 11:01:06;;;;;;;18.37;5.20;;;;;;;3.69;100.00;96938.50;6192234;23;20024;-88
2023/02/02 11:03:35;;;;;;;14.80;4.03;;;;;;;3.70;100.00;96947.13;6189925;23;20023;-88
2023/02/02 11:09:13;;;;;;;17.67;3.77;;;;;;;3.77;100.00;96935.38;6214960;23;20024;-88
2023/02/02 11:11:49;;;;;;;15.73;4.33;;;;;;;3.81;100.00;96936.84;6240552;23;20016;-88
2023/02/02 11:14:29;;;;;;;16.97;4.20;;;;;;;3.86;100.00;96933.97;6215742;23;20012;-88
2023/02/02 11:17:04;;;;;;;10.00;3.53;;;;;;;3.86;100.00;96947.78;6189784;23;20023;-88
2023/02/02 11:19:34;;;;;;;14.83;5.43;;;;;;;3.83;100.00;96932.38;6191362;23;20023;-88
2023/02/02 11:22:04;;;;;;;14.50;4.00;;;;;;;3.84;100.00;96938.41;6190761;23;20016;-89
2023/02/02 11:24:48;;;;;;;11.97;3.80;;;;;;;3.84;100.00;96943.63;6217144;23;20098;-89
2023/02/02 11:27:23;;;;;;;12.18;4.07;;;;;;;3.78;100.00;96939.63;6217707;23;20038;-88
2023/02/02 11:29:54;;;;;;;11.03;4.07;;;;;;;3.81;100.00;96925.59;6192706;23;20142;-89
2023/02/02 11:32:38;;;;;;;11.33;3.30;;;;;;;3.82;100.00;96935.91;6192668;23;20014;-89
2023/02/02 11:35:14;;;;;;;10.07;3.77;;;;;;;3.75;100.00;96942.44;6192840;23;20012;-89
2023/02/02 11:38:09;;;;;;;10.43;3.93;;;;;;;3.74;100.00;96933.81;6244266;23;20015;-89
2023/02/02 11:40:40;;;;;;;15.73;4.83;;;;;;;3.79;100.00;96928.31;6190958;23;20024;-89
2023/02/02 11:43:30;;;;;;;12.13;3.70;;;;;;;3.74;100.00;96935.56;6192307;23;20070;-89
2023/02/02 11:46:02;;;;;;;18.27;8.30;;;;;;;3.76;100.00;96931.13;6195052;23;20097;-90
2023/02/02 11:48:38;;;;;;;48.78;11.88;;;;;;;4.29;100.00;96924.09;6194024;23;20023;-91
2023/02/02 11:51:11;;;;;;;24.83;8.80;;;;;;;4.04;100.00;96944.91;6193065;23;20016;-90
2023/02/02 11:54:18;;;;;;;15.52;5.10;;;;;;;3.85;100.00;96922.69;6191164;23;20026;-89
2023/02/02 11:56:50;;;;;;;12.40;3.97;;;;;;;3.75;100.00;96932.88;6192370;23;20027;-89
2023/02/02 11:59:41;;;;;;;11.90;3.70;;;;;;;3.73;100.00;96933.91;6216560;23;20091;-91
2023/02/02 12:02:18;;;;;;;16.20;4.47;;;;;;;3.77;100.00;96932.78;6216867;23;20054;-91